Terminal Aerodrome Forecast
Issued by NWS Upton, NY

Home | Current Version | Previous Version | Text Only | Print | Product List | Glossary On
Versions: 1 2 3 4 5 6 7 8 9 10 11 12 13 14 15 16 17 18 19 20 21 22 23 24 25 26 27 28 29 30 31 32 33 34 35 36 37 38 39 40 41 42 43 44 45 46 47 48 49 50
000
FTUS41 KOKX 180521
TAFEWR
TAF
KEWR 180521Z 1806/1912 08005KT 5SM -SN OVC030
     FM180800 08005KT 2SM -SN OVC015
     FM181100 04005KT 2SM -SN OVC008
     FM181400 05004KT 4SM BR OVC008
     FM181600 VRB04KT P6SM BKN015
     FM182000 28006KT P6SM BKN025
     FM182100 28007KT P6SM SCT025
     FM190200 32006KT P6SM SCT250=

USA.gov is the U.S. government's official web portal to all federal, state and local government web resources and services.